Atwood, Kansas
Current Conditions -  °F | °C
As of 3:55 AM on Wednesday 26 Nov 2014 (Local Time) from KCBK Reporting Station
Overcast Overcast  
Wind Chill: 25°   Ceiling: 8500
Heat Index: 36°   Visibility: 10mi
Dew Point: 34°   Wind: 20mph
Humidity: 93%   Direction: 290°WNW
Pressure: 30.09"   Gusts: 25mph
Location:  39.81°N, 101.04°W
Report Text: KCBK 260955Z AUTO 29017G22KT 10SM OVC085 02/01 A3009 RMK AO2
Loading
Personal Weather Stations






























Interactive Weather Map New forecast layout! Learn more

10-Day Weather Forecast

Advertisements
Track Severe Weather on mobile